sensor_id;sensor_type;location;lat;lon;timestamp;P1;durP1;ratioP1;P2;durP2;ratioP2
63943;SDS011;50121;51.218;7.664;2023-12-29T00:02:02;6.95;;;5.72;;
63943;SDS011;50121;51.218;7.664;2023-12-29T00:04:30;6.13;;;5.47;;
63943;SDS011;50121;51.218;7.664;2023-12-29T00:06:58;5.95;;;5.40;;
63943;SDS011;50121;51.218;7.664;2023-12-29T00:09:25;5.88;;;5.47;;
63943;SDS011;50121;51.218;7.664;2023-12-29T00:11:53;6.10;;;5.57;;
63943;SDS011;50121;51.218;7.664;2023-12-29T00:14:23;6.13;;;5.70;;
63943;SDS011;50121;51.218;7.664;2023-12-29T00:16:52;5.80;;;5.30;;
63943;SDS011;50121;51.218;7.664;2023-12-29T00:19:23;5.88;;;5.47;;
63943;SDS011;50121;51.218;7.664;2023-12-29T00:21:51;5.35;;;5.05;;
63943;SDS011;50121;51.218;7.664;2023-12-29T00:24:18;6.13;;;5.40;;
63943;SDS011;50121;51.218;7.664;2023-12-29T00:26:46;7.32;;;5.13;;
63943;SDS011;50121;51.218;7.664;2023-12-29T00:29:14;5.50;;;5.00;;
63943;SDS011;50121;51.218;7.664;2023-12-29T00:31:41;5.63;;;5.22;;
63943;SDS011;50121;51.218;7.664;2023-12-29T00:34:09;5.30;;;4.95;;
63943;SDS011;50121;51.218;7.664;2023-12-29T00:36:37;5.90;;;5.30;;
63943;SDS011;50121;51.218;7.664;2023-12-29T00:39:04;6.20;;;5.63;;
63943;SDS011;50121;51.218;7.664;2023-12-29T00:41:32;5.65;;;5.28;;
63943;SDS011;50121;51.218;7.664;2023-12-29T00:44:00;5.50;;;5.20;;
63943;SDS011;50121;51.218;7.664;2023-12-29T00:46:27;5.80;;;5.30;;
63943;SDS011;50121;51.218;7.664;2023-12-29T00:48:55;5.65;;;5.25;;
63943;SDS011;50121;51.218;7.664;2023-12-29T00:51:23;6.40;;;5.57;;
63943;SDS011;50121;51.218;7.664;2023-12-29T00:53:51;5.80;;;5.13;;
63943;SDS011;50121;51.218;7.664;2023-12-29T00:56:19;5.60;;;5.30;;
63943;SDS011;50121;51.218;7.664;2023-12-29T00:58:47;5.75;;;5.35;;
63943;SDS011;50121;51.218;7.664;2023-12-29T01:01:15;5.75;;;5.35;;
63943;SDS011;50121;51.218;7.664;2023-12-29T01:03:42;5.68;;;5.22;;
63943;SDS011;50121;51.218;7.664;2023-12-29T01:06:11;5.78;;;5.38;;
63943;SDS011;50121;51.218;7.664;2023-12-29T01:08:38;6.10;;;5.60;;
63943;SDS011;50121;51.218;7.664;2023-12-29T01:11:06;6.07;;;5.60;;
63943;SDS011;50121;51.218;7.664;2023-12-29T01:13:33;5.50;;;5.10;;
63943;SDS011;50121;51.218;7.664;2023-12-29T01:16:01;6.53;;;6.00;;
63943;SDS011;50121;51.218;7.664;2023-12-29T01:18:29;5.63;;;5.22;;
63943;SDS011;50121;51.218;7.664;2023-12-29T01:20:57;6.03;;;5.50;;
63943;SDS011;50121;51.218;7.664;2023-12-29T01:23:24;5.75;;;5.30;;
63943;SDS011;50121;51.218;7.664;2023-12-29T01:25:52;5.90;;;5.30;;
63943;SDS011;50121;51.218;7.664;2023-12-29T01:28:19;5.90;;;5.47;;
63943;SDS011;50121;51.218;7.664;2023-12-29T01:30:47;5.80;;;5.40;;
63943;SDS011;50121;51.218;7.664;2023-12-29T01:33:14;5.90;;;5.50;;
63943;SDS011;50121;51.218;7.664;2023-12-29T01:35:42;5.97;;;5.35;;
63943;SDS011;50121;51.218;7.664;2023-12-29T01:38:10;6.40;;;5.78;;
63943;SDS011;50121;51.218;7.664;2023-12-29T01:40:47;5.72;;;5.32;;
63943;SDS011;50121;51.218;7.664;2023-12-29T01:43:14;6.95;;;5.60;;
63943;SDS011;50121;51.218;7.664;2023-12-29T01:45:42;5.70;;;5.20;;
63943;SDS011;50121;51.218;7.664;2023-12-29T01:48:12;7.53;;;5.60;;
63943;SDS011;50121;51.218;7.664;2023-12-29T01:50:40;8.70;;;5.50;;
63943;SDS011;50121;51.218;7.664;2023-12-29T01:53:08;6.10;;;5.60;;
63943;SDS011;50121;51.218;7.664;2023-12-29T01:55:36;6.75;;;5.68;;
63943;SDS011;50121;51.218;7.664;2023-12-29T01:58:04;5.80;;;5.40;;
63943;SDS011;50121;51.218;7.664;2023-12-29T02:00:32;5.97;;;5.38;;
63943;SDS011;50121;51.218;7.664;2023-12-29T02:03:01;6.82;;;5.63;;
63943;SDS011;50121;51.218;7.664;2023-12-29T02:05:29;5.85;;;5.32;;
63943;SDS011;50121;51.218;7.664;2023-12-29T02:07:58;5.45;;;5.05;;
63943;SDS011;50121;51.218;7.664;2023-12-29T02:10:28;5.90;;;5.60;;
63943;SDS011;50121;51.218;7.664;2023-12-29T02:12:55;6.95;;;5.38;;
63943;SDS011;50121;51.218;7.664;2023-12-29T02:15:28;5.57;;;5.18;;
63943;SDS011;50121;51.218;7.664;2023-12-29T02:17:58;6.00;;;5.40;;
63943;SDS011;50121;51.218;7.664;2023-12-29T02:20:27;5.45;;;5.05;;
63943;SDS011;50121;51.218;7.664;2023-12-29T02:22:55;6.65;;;5.50;;
63943;SDS011;50121;51.218;7.664;2023-12-29T02:25:23;6.10;;;5.47;;
63943;SDS011;50121;51.218;7.664;2023-12-29T02:27:52;6.05;;;5.65;;
63943;SDS011;50121;51.218;7.664;2023-12-29T02:30:28;6.03;;;5.53;;
63943;SDS011;50121;51.218;7.664;2023-12-29T02:32:59;7.60;;;5.70;;
63943;SDS011;50121;51.218;7.664;2023-12-29T02:35:28;6.05;;;5.50;;
63943;SDS011;50121;51.218;7.664;2023-12-29T02:37:59;6.70;;;5.80;;
63943;SDS011;50121;51.218;7.664;2023-12-29T02:40:27;6.10;;;5.70;;
63943;SDS011;50121;51.218;7.664;2023-12-29T02:42:55;6.10;;;5.63;;
63943;SDS011;50121;51.218;7.664;2023-12-29T02:45:22;6.30;;;5.70;;
63943;SDS011;50121;51.218;7.664;2023-12-29T02:47:50;7.40;;;6.10;;
63943;SDS011;50121;51.218;7.664;2023-12-29T02:50:17;6.10;;;5.60;;
63943;SDS011;50121;51.218;7.664;2023-12-29T02:52:45;6.18;;;5.60;;
63943;SDS011;50121;51.218;7.664;2023-12-29T02:55:13;6.35;;;5.32;;
63943;SDS011;50121;51.218;7.664;2023-12-29T02:57:40;5.63;;;5.10;;
63943;SDS011;50121;51.218;7.664;2023-12-29T03:00:08;6.28;;;4.80;;
63943;SDS011;50121;51.218;7.664;2023-12-29T03:02:36;6.20;;;4.88;;
63943;SDS011;50121;51.218;7.664;2023-12-29T03:05:03;6.25;;;4.80;;
63943;SDS011;50121;51.218;7.664;2023-12-29T03:07:31;5.43;;;4.95;;
63943;SDS011;50121;51.218;7.664;2023-12-29T03:09:59;5.47;;;4.97;;
63943;SDS011;50121;51.218;7.664;2023-12-29T03:12:26;6.90;;;5.03;;
63943;SDS011;50121;51.218;7.664;2023-12-29T03:14:55;7.47;;;5.18;;
63943;SDS011;50121;51.218;7.664;2023-12-29T03:17:23;5.22;;;4.72;;
63943;SDS011;50121;51.218;7.664;2023-12-29T03:19:51;7.43;;;5.07;;
63943;SDS011;50121;51.218;7.664;2023-12-29T03:22:21;7.55;;;5.13;;
63943;SDS011;50121;51.218;7.664;2023-12-29T03:24:49;5.50;;;5.00;;
63943;SDS011;50121;51.218;7.664;2023-12-29T03:27:16;6.60;;;5.10;;
63943;SDS011;50121;51.218;7.664;2023-12-29T03:29:44;5.30;;;4.90;;
63943;SDS011;50121;51.218;7.664;2023-12-29T03:32:11;7.10;;;4.82;;
63943;SDS011;50121;51.218;7.664;2023-12-29T03:34:39;6.90;;;4.93;;
63943;SDS011;50121;51.218;7.664;2023-12-29T03:37:07;6.28;;;5.13;;
63943;SDS011;50121;51.218;7.664;2023-12-29T03:39:34;5.55;;;4.90;;
63943;SDS011;50121;51.218;7.664;2023-12-29T03:42:03;5.93;;;5.00;;
63943;SDS011;50121;51.218;7.664;2023-12-29T03:44:30;7.70;;;4.95;;
63943;SDS011;50121;51.218;7.664;2023-12-29T03:46:58;6.93;;;5.00;;
63943;SDS011;50121;51.218;7.664;2023-12-29T03:49:26;6.05;;;4.70;;
63943;SDS011;50121;51.218;7.664;2023-12-29T03:51:54;5.40;;;4.70;;
63943;SDS011;50121;51.218;7.664;2023-12-29T03:54:22;7.53;;;4.95;;
63943;SDS011;50121;51.218;7.664;2023-12-29T03:56:49;5.03;;;4.45;;
63943;SDS011;50121;51.218;7.664;2023-12-29T03:59:17;7.28;;;4.97;;
63943;SDS011;50121;51.218;7.664;2023-12-29T04:01:44;5.35;;;4.65;;
63943;SDS011;50121;51.218;7.664;2023-12-29T04:04:12;5.97;;;4.60;;
63943;SDS011;50121;51.218;7.664;2023-12-29T04:06:39;9.70;;;4.70;;
63943;SDS011;50121;51.218;7.664;2023-12-29T04:09:07;5.15;;;4.65;;
63943;SDS011;50121;51.218;7.664;2023-12-29T04:11:34;6.75;;;5.00;;
63943;SDS011;50121;51.218;7.664;2023-12-29T04:14:02;5.40;;;4.97;;
63943;SDS011;50121;51.218;7.664;2023-12-29T04:16:29;6.10;;;4.80;;
63943;SDS011;50121;51.218;7.664;2023-12-29T04:18:57;8.40;;;5.15;;
63943;SDS011;50121;51.218;7.664;2023-12-29T04:21:25;5.90;;;4.60;;
63943;SDS011;50121;51.218;7.664;2023-12-29T04:23:52;5.72;;;5.07;;
63943;SDS011;50121;51.218;7.664;2023-12-29T04:26:21;5.35;;;4.57;;
63943;SDS011;50121;51.218;7.664;2023-12-29T04:28:49;6.68;;;4.88;;
63943;SDS011;50121;51.218;7.664;2023-12-29T04:31:17;7.28;;;4.63;;
63943;SDS011;50121;51.218;7.664;2023-12-29T04:33:44;5.70;;;4.60;;
63943;SDS011;50121;51.218;7.664;2023-12-29T04:36:12;5.68;;;4.57;;
63943;SDS011;50121;51.218;7.664;2023-12-29T04:38:40;8.60;;;5.15;;
63943;SDS011;50121;51.218;7.664;2023-12-29T04:41:07;5.45;;;4.75;;
63943;SDS011;50121;51.218;7.664;2023-12-29T04:43:35;5.13;;;4.63;;
63943;SDS011;50121;51.218;7.664;2023-12-29T04:46:02;6.03;;;5.40;;
63943;SDS011;50121;51.218;7.664;2023-12-29T04:48:30;10.38;;;5.28;;
63943;SDS011;50121;51.218;7.664;2023-12-29T04:50:57;5.75;;;4.32;;
63943;SDS011;50121;51.218;7.664;2023-12-29T04:53:25;7.07;;;4.75;;
63943;SDS011;50121;51.218;7.664;2023-12-29T04:55:52;5.07;;;4.60;;
63943;SDS011;50121;51.218;7.664;2023-12-29T04:58:20;9.30;;;4.40;;
63943;SDS011;50121;51.218;7.664;2023-12-29T05:00:48;7.75;;;4.50;;
63943;SDS011;50121;51.218;7.664;2023-12-29T05:03:15;5.20;;;4.70;;
63943;SDS011;50121;51.218;7.664;2023-12-29T05:05:43;6.07;;;4.30;;
63943;SDS011;50121;51.218;7.664;2023-12-29T05:08:10;7.90;;;4.68;;
63943;SDS011;50121;51.218;7.664;2023-12-29T05:10:38;6.53;;;4.28;;
63943;SDS011;50121;51.218;7.664;2023-12-29T05:13:05;8.05;;;4.38;;
63943;SDS011;50121;51.218;7.664;2023-12-29T05:15:33;7.85;;;4.60;;
63943;SDS011;50121;51.218;7.664;2023-12-29T05:18:01;6.25;;;4.20;;
63943;SDS011;50121;51.218;7.664;2023-12-29T05:20:29;4.70;;;4.10;;
63943;SDS011;50121;51.218;7.664;2023-12-29T05:22:56;7.75;;;4.60;;
63943;SDS011;50121;51.218;7.664;2023-12-29T05:25:24;8.73;;;4.80;;
63943;SDS011;50121;51.218;7.664;2023-12-29T05:27:51;5.90;;;4.13;;
63943;SDS011;50121;51.218;7.664;2023-12-29T05:30:19;7.30;;;4.38;;
63943;SDS011;50121;51.218;7.664;2023-12-29T05:32:46;7.43;;;4.25;;
63943;SDS011;50121;51.218;7.664;2023-12-29T05:35:14;6.70;;;4.38;;
63943;SDS011;50121;51.218;7.664;2023-12-29T05:37:41;4.85;;;4.35;;
63943;SDS011;50121;51.218;7.664;2023-12-29T05:40:09;4.70;;;4.30;;
63943;SDS011;50121;51.218;7.664;2023-12-29T05:42:37;4.88;;;4.32;;
63943;SDS011;50121;51.218;7.664;2023-12-29T05:45:04;5.22;;;4.40;;
63943;SDS011;50121;51.218;7.664;2023-12-29T05:47:33;6.93;;;4.30;;
63943;SDS011;50121;51.218;7.664;2023-12-29T05:50:01;5.85;;;4.35;;
63943;SDS011;50121;51.218;7.664;2023-12-29T05:52:29;6.07;;;4.95;;
63943;SDS011;50121;51.218;7.664;2023-12-29T05:54:56;5.90;;;4.30;;
63943;SDS011;50121;51.218;7.664;2023-12-29T05:57:24;4.82;;;4.40;;
63943;SDS011;50121;51.218;7.664;2023-12-29T05:59:52;7.03;;;4.45;;
63943;SDS011;50121;51.218;7.664;2023-12-29T06:02:19;5.47;;;4.20;;
63943;SDS011;50121;51.218;7.664;2023-12-29T06:04:47;5.45;;;4.38;;
63943;SDS011;50121;51.218;7.664;2023-12-29T06:07:14;8.93;;;4.53;;
63943;SDS011;50121;51.218;7.664;2023-12-29T06:09:42;6.60;;;4.63;;
63943;SDS011;50121;51.218;7.664;2023-12-29T06:12:10;9.70;;;4.65;;
63943;SDS011;50121;51.218;7.664;2023-12-29T06:14:37;6.57;;;4.25;;
63943;SDS011;50121;51.218;7.664;2023-12-29T06:17:05;4.78;;;4.25;;
63943;SDS011;50121;51.218;7.664;2023-12-29T06:19:32;7.57;;;4.50;;
63943;SDS011;50121;51.218;7.664;2023-12-29T06:22:00;5.88;;;4.75;;
63943;SDS011;50121;51.218;7.664;2023-12-29T06:24:27;4.60;;;4.20;;
63943;SDS011;50121;51.218;7.664;2023-12-29T06:26:55;7.90;;;4.40;;
63943;SDS011;50121;51.218;7.664;2023-12-29T06:29:23;6.00;;;4.18;;
63943;SDS011;50121;51.218;7.664;2023-12-29T06:31:50;7.95;;;4.40;;
63943;SDS011;50121;51.218;7.664;2023-12-29T06:34:18;7.55;;;4.63;;
63943;SDS011;50121;51.218;7.664;2023-12-29T06:36:45;9.13;;;5.43;;
63943;SDS011;50121;51.218;7.664;2023-12-29T06:39:13;5.82;;;3.97;;
63943;SDS011;50121;51.218;7.664;2023-12-29T06:41:40;5.28;;;4.32;;
63943;SDS011;50121;51.218;7.664;2023-12-29T06:44:08;7.75;;;4.40;;
63943;SDS011;50121;51.218;7.664;2023-12-29T06:46:37;5.63;;;4.57;;
63943;SDS011;50121;51.218;7.664;2023-12-29T06:49:08;5.25;;;4.68;;
63943;SDS011;50121;51.218;7.664;2023-12-29T06:51:36;7.25;;;4.30;;
63943;SDS011;50121;51.218;7.664;2023-12-29T06:54:05;8.45;;;3.88;;
63943;SDS011;50121;51.218;7.664;2023-12-29T06:56:33;5.50;;;3.70;;
63943;SDS011;50121;51.218;7.664;2023-12-29T06:59:00;6.88;;;3.70;;
63943;SDS011;50121;51.218;7.664;2023-12-29T07:01:28;4.18;;;3.75;;
63943;SDS011;50121;51.218;7.664;2023-12-29T07:03:55;6.72;;;4.13;;
63943;SDS011;50121;51.218;7.664;2023-12-29T07:06:23;5.63;;;3.65;;
63943;SDS011;50121;51.218;7.664;2023-12-29T07:08:51;5.65;;;4.00;;
63943;SDS011;50121;51.218;7.664;2023-12-29T07:11:18;4.78;;;4.32;;
63943;SDS011;50121;51.218;7.664;2023-12-29T07:13:46;7.60;;;4.20;;
63943;SDS011;50121;51.218;7.664;2023-12-29T07:16:13;5.03;;;4.00;;
63943;SDS011;50121;51.218;7.664;2023-12-29T07:18:41;6.03;;;3.97;;
63943;SDS011;50121;51.218;7.664;2023-12-29T07:21:09;6.57;;;4.45;;
63943;SDS011;50121;51.218;7.664;2023-12-29T07:23:39;4.43;;;3.85;;
63943;SDS011;50121;51.218;7.664;2023-12-29T07:26:08;5.78;;;3.90;;
63943;SDS011;50121;51.218;7.664;2023-12-29T07:28:35;6.13;;;4.15;;
63943;SDS011;50121;51.218;7.664;2023-12-29T07:31:03;6.13;;;4.40;;
63943;SDS011;50121;51.218;7.664;2023-12-29T07:33:31;4.38;;;3.85;;
63943;SDS011;50121;51.218;7.664;2023-12-29T07:35:59;6.28;;;3.83;;
63943;SDS011;50121;51.218;7.664;2023-12-29T07:38:27;7.70;;;4.60;;
63943;SDS011;50121;51.218;7.664;2023-12-29T07:40:54;4.95;;;4.47;;
63943;SDS011;50121;51.218;7.664;2023-12-29T07:43:22;5.88;;;4.13;;
63943;SDS011;50121;51.218;7.664;2023-12-29T07:45:49;5.97;;;4.20;;
63943;SDS011;50121;51.218;7.664;2023-12-29T07:48:17;5.93;;;4.38;;
63943;SDS011;50121;51.218;7.664;2023-12-29T07:50:45;5.63;;;4.05;;
63943;SDS011;50121;51.218;7.664;2023-12-29T07:53:12;5.60;;;3.88;;
63943;SDS011;50121;51.218;7.664;2023-12-29T07:55:40;4.95;;;4.20;;
63943;SDS011;50121;51.218;7.664;2023-12-29T07:58:07;4.45;;;4.05;;
63943;SDS011;50121;51.218;7.664;2023-12-29T08:00:37;7.72;;;4.05;;
63943;SDS011;50121;51.218;7.664;2023-12-29T08:03:04;6.95;;;4.05;;
63943;SDS011;50121;51.218;7.664;2023-12-29T08:05:32;4.28;;;3.90;;
63943;SDS011;50121;51.218;7.664;2023-12-29T08:08:00;5.13;;;4.03;;
63943;SDS011;50121;51.218;7.664;2023-12-29T08:10:28;4.43;;;4.10;;
63943;SDS011;50121;51.218;7.664;2023-12-29T08:12:56;4.78;;;4.30;;
63943;SDS011;50121;51.218;7.664;2023-12-29T08:15:23;4.20;;;3.90;;
63943;SDS011;50121;51.218;7.664;2023-12-29T08:17:51;6.60;;;4.50;;
63943;SDS011;50121;51.218;7.664;2023-12-29T08:20:18;8.20;;;4.18;;
63943;SDS011;50121;51.218;7.664;2023-12-29T08:22:47;4.45;;;4.05;;
63943;SDS011;50121;51.218;7.664;2023-12-29T08:25:15;5.38;;;4.40;;
63943;SDS011;50121;51.218;7.664;2023-12-29T08:27:42;4.30;;;4.00;;
63943;SDS011;50121;51.218;7.664;2023-12-29T08:30:10;4.25;;;3.95;;
63943;SDS011;50121;51.218;7.664;2023-12-29T08:32:38;4.38;;;4.00;;
63943;SDS011;50121;51.218;7.664;2023-12-29T08:35:06;4.40;;;4.00;;
63943;SDS011;50121;51.218;7.664;2023-12-29T08:37:33;4.55;;;3.92;;
63943;SDS011;50121;51.218;7.664;2023-12-29T08:40:01;4.53;;;4.10;;
63943;SDS011;50121;51.218;7.664;2023-12-29T08:42:29;4.68;;;4.22;;
63943;SDS011;50121;51.218;7.664;2023-12-29T08:44:58;6.10;;;4.60;;
63943;SDS011;50121;51.218;7.664;2023-12-29T08:47:25;4.45;;;4.05;;
63943;SDS011;50121;51.218;7.664;2023-12-29T08:49:53;5.47;;;4.28;;
63943;SDS011;50121;51.218;7.664;2023-12-29T08:52:21;4.03;;;3.83;;
63943;SDS011;50121;51.218;7.664;2023-12-29T08:54:48;4.60;;;4.20;;
63943;SDS011;50121;51.218;7.664;2023-12-29T08:57:16;4.65;;;4.22;;
63943;SDS011;50121;51.218;7.664;2023-12-29T08:59:43;6.75;;;4.10;;
63943;SDS011;50121;51.218;7.664;2023-12-29T09:02:11;4.30;;;3.90;;
63943;SDS011;50121;51.218;7.664;2023-12-29T09:04:38;5.93;;;4.00;;
63943;SDS011;50121;51.218;7.664;2023-12-29T09:07:06;4.65;;;3.60;;
63943;SDS011;50121;51.218;7.664;2023-12-29T09:09:33;5.32;;;3.80;;
63943;SDS011;50121;51.218;7.664;2023-12-29T09:12:01;3.45;;;3.25;;
63943;SDS011;50121;51.218;7.664;2023-12-29T09:14:29;4.45;;;4.10;;
63943;SDS011;50121;51.218;7.664;2023-12-29T09:16:59;4.53;;;4.10;;
63943;SDS011;50121;51.218;7.664;2023-12-29T09:19:26;4.10;;;3.80;;
63943;SDS011;50121;51.218;7.664;2023-12-29T09:21:56;4.60;;;4.20;;
63943;SDS011;50121;51.218;7.664;2023-12-29T09:24:24;4.65;;;4.20;;
63943;SDS011;50121;51.218;7.664;2023-12-29T09:26:51;5.53;;;4.97;;
63943;SDS011;50121;51.218;7.664;2023-12-29T09:29:19;4.25;;;4.00;;
63943;SDS011;50121;51.218;7.664;2023-12-29T09:31:47;3.90;;;3.60;;
63943;SDS011;50121;51.218;7.664;2023-12-29T09:34:16;4.75;;;4.35;;
63943;SDS011;50121;51.218;7.664;2023-12-29T09:36:43;3.80;;;3.60;;
63943;SDS011;50121;51.218;7.664;2023-12-29T09:39:11;4.00;;;3.70;;
63943;SDS011;50121;51.218;7.664;2023-12-29T09:41:39;4.05;;;3.75;;
63943;SDS011;50121;51.218;7.664;2023-12-29T09:44:13;4.03;;;3.63;;
63943;SDS011;50121;51.218;7.664;2023-12-29T09:46:42;4.20;;;3.90;;
63943;SDS011;50121;51.218;7.664;2023-12-29T09:49:10;4.10;;;3.80;;
63943;SDS011;50121;51.218;7.664;2023-12-29T09:51:38;4.40;;;3.95;;
63943;SDS011;50121;51.218;7.664;2023-12-29T09:54:07;4.60;;;4.20;;
63943;SDS011;50121;51.218;7.664;2023-12-29T09:56:37;4.10;;;3.80;;
63943;SDS011;50121;51.218;7.664;2023-12-29T09:59:05;3.85;;;3.65;;
63943;SDS011;50121;51.218;7.664;2023-12-29T10:01:33;4.28;;;3.90;;
63943;SDS011;50121;51.218;7.664;2023-12-29T10:04:01;4.60;;;4.30;;
63943;SDS011;50121;51.218;7.664;2023-12-29T10:06:29;4.45;;;4.15;;
63943;SDS011;50121;51.218;7.664;2023-12-29T10:08:58;4.60;;;4.30;;
63943;SDS011;50121;51.218;7.664;2023-12-29T10:11:26;4.40;;;4.10;;
63943;SDS011;50121;51.218;7.664;2023-12-29T10:14:21;4.40;;;4.10;;
63943;SDS011;50121;51.218;7.664;2023-12-29T10:16:53;4.00;;;3.75;;
63943;SDS011;50121;51.218;7.664;2023-12-29T10:19:35;4.10;;;3.80;;
63943;SDS011;50121;51.218;7.664;2023-12-29T10:24:45;4.90;;;4.40;;
63943;SDS011;50121;51.218;7.664;2023-12-29T10:27:13;4.22;;;4.03;;
63943;SDS011;50121;51.218;7.664;2023-12-29T10:29:41;4.10;;;3.90;;
63943;SDS011;50121;51.218;7.664;2023-12-29T10:32:09;4.13;;;3.92;;
63943;SDS011;50121;51.218;7.664;2023-12-29T10:34:36;4.35;;;3.97;;
63943;SDS011;50121;51.218;7.664;2023-12-29T10:37:04;4.18;;;3.92;;
63943;SDS011;50121;51.218;7.664;2023-12-29T10:39:35;4.10;;;3.90;;
63943;SDS011;50121;51.218;7.664;2023-12-29T10:42:06;4.35;;;4.00;;
63943;SDS011;50121;51.218;7.664;2023-12-29T10:44:35;3.80;;;3.60;;
63943;SDS011;50121;51.218;7.664;2023-12-29T10:47:12;3.95;;;3.75;;
63943;SDS011;50121;51.218;7.664;2023-12-29T10:49:41;4.07;;;3.85;;
63943;SDS011;50121;51.218;7.664;2023-12-29T10:52:12;4.05;;;3.85;;
63943;SDS011;50121;51.218;7.664;2023-12-29T10:54:41;4.32;;;4.00;;
63943;SDS011;50121;51.218;7.664;2023-12-29T10:57:12;4.35;;;4.05;;
63943;SDS011;50121;51.218;7.664;2023-12-29T10:59:40;4.85;;;4.38;;
63943;SDS011;50121;51.218;7.664;2023-12-29T11:02:11;4.57;;;4.03;;
63943;SDS011;50121;51.218;7.664;2023-12-29T11:04:41;4.53;;;4.10;;
63943;SDS011;50121;51.218;7.664;2023-12-29T11:07:11;4.25;;;3.95;;
63943;SDS011;50121;51.218;7.664;2023-12-29T11:09:38;5.10;;;4.15;;
63943;SDS011;50121;51.218;7.664;2023-12-29T11:12:07;4.03;;;3.72;;
63943;SDS011;50121;51.218;7.664;2023-12-29T11:14:35;3.80;;;3.50;;
63943;SDS011;50121;51.218;7.664;2023-12-29T11:17:02;4.10;;;3.80;;
63943;SDS011;50121;51.218;7.664;2023-12-29T11:19:30;3.95;;;3.65;;
63943;SDS011;50121;51.218;7.664;2023-12-29T11:21:59;4.03;;;3.80;;
63943;SDS011;50121;51.218;7.664;2023-12-29T11:24:27;5.95;;;4.13;;
63943;SDS011;50121;51.218;7.664;2023-12-29T11:26:56;4.57;;;4.20;;
63943;SDS011;50121;51.218;7.664;2023-12-29T11:29:42;3.75;;;3.50;;
63943;SDS011;50121;51.218;7.664;2023-12-29T11:32:16;4.50;;;4.20;;
63943;SDS011;50121;51.218;7.664;2023-12-29T11:34:49;4.13;;;3.83;;
63943;SDS011;50121;51.218;7.664;2023-12-29T11:37:25;3.90;;;3.60;;
63943;SDS011;50121;51.218;7.664;2023-12-29T11:39:58;3.97;;;3.67;;
63943;SDS011;50121;51.218;7.664;2023-12-29T11:42:33;4.35;;;3.95;;
63943;SDS011;50121;51.218;7.664;2023-12-29T11:45:25;4.03;;;3.83;;
63943;SDS011;50121;51.218;7.664;2023-12-29T11:47:53;4.15;;;3.90;;
63943;SDS011;50121;51.218;7.664;2023-12-29T11:50:29;4.05;;;3.75;;
63943;SDS011;50121;51.218;7.664;2023-12-29T11:52:57;4.38;;;3.90;;
63943;SDS011;50121;51.218;7.664;2023-12-29T11:55:30;4.38;;;3.95;;
63943;SDS011;50121;51.218;7.664;2023-12-29T11:57:58;4.20;;;3.90;;
63943;SDS011;50121;51.218;7.664;2023-12-29T12:00:45;4.53;;;4.22;;
63943;SDS011;50121;51.218;7.664;2023-12-29T12:03:14;4.40;;;4.10;;
63943;SDS011;50121;51.218;7.664;2023-12-29T12:05:45;4.30;;;4.00;;
63943;SDS011;50121;51.218;7.664;2023-12-29T12:08:29;4.35;;;4.00;;
63943;SDS011;50121;51.218;7.664;2023-12-29T12:13:46;4.47;;;3.90;;
63943;SDS011;50121;51.218;7.664;2023-12-29T12:19:00;4.30;;;4.00;;
63943;SDS011;50121;51.218;7.664;2023-12-29T12:21:28;4.20;;;3.95;;
63943;SDS011;50121;51.218;7.664;2023-12-29T12:23:56;4.05;;;3.78;;
63943;SDS011;50121;51.218;7.664;2023-12-29T12:26:24;4.43;;;4.10;;
63943;SDS011;50121;51.218;7.664;2023-12-29T12:28:53;4.32;;;4.10;;
63943;SDS011;50121;51.218;7.664;2023-12-29T12:31:21;4.38;;;4.07;;
63943;SDS011;50121;51.218;7.664;2023-12-29T12:33:55;3.88;;;3.67;;
63943;SDS011;50121;51.218;7.664;2023-12-29T12:36:23;4.30;;;4.00;;
63943;SDS011;50121;51.218;7.664;2023-12-29T12:38:53;4.70;;;4.30;;
63943;SDS011;50121;51.218;7.664;2023-12-29T12:41:21;5.15;;;4.20;;
63943;SDS011;50121;51.218;7.664;2023-12-29T12:44:31;4.20;;;4.00;;
63943;SDS011;50121;51.218;7.664;2023-12-29T12:46:50;4.03;;;3.83;;
63943;SDS011;50121;51.218;7.664;2023-12-29T12:49:19;4.40;;;3.95;;
63943;SDS011;50121;51.218;7.664;2023-12-29T12:51:47;3.90;;;3.70;;
63943;SDS011;50121;51.218;7.664;2023-12-29T12:54:19;3.80;;;3.60;;
63943;SDS011;50121;51.218;7.664;2023-12-29T12:56:46;4.05;;;3.75;;
63943;SDS011;50121;51.218;7.664;2023-12-29T12:59:14;4.20;;;3.88;;
63943;SDS011;50121;51.218;7.664;2023-12-29T13:01:45;5.00;;;4.35;;
63943;SDS011;50121;51.218;7.664;2023-12-29T13:04:13;4.60;;;4.20;;
63943;SDS011;50121;51.218;7.664;2023-12-29T13:06:41;4.60;;;4.20;;
63943;SDS011;50121;51.218;7.664;2023-12-29T13:09:10;4.45;;;4.15;;
63943;SDS011;50121;51.218;7.664;2023-12-29T13:11:39;6.53;;;3.90;;
63943;SDS011;50121;51.218;7.664;2023-12-29T13:14:19;4.30;;;4.00;;
63943;SDS011;50121;51.218;7.664;2023-12-29T13:16:46;4.07;;;3.80;;
63943;SDS011;50121;51.218;7.664;2023-12-29T13:19:24;4.65;;;4.35;;
63943;SDS011;50121;51.218;7.664;2023-12-29T13:21:54;5.18;;;4.78;;
63943;SDS011;50121;51.218;7.664;2023-12-29T13:24:22;5.00;;;4.65;;
63943;SDS011;50121;51.218;7.664;2023-12-29T13:26:51;5.68;;;5.28;;
63943;SDS011;50121;51.218;7.664;2023-12-29T13:29:19;4.50;;;4.10;;
63943;SDS011;50121;51.218;7.664;2023-12-29T13:31:47;4.05;;;3.75;;
63943;SDS011;50121;51.218;7.664;2023-12-29T13:34:39;4.28;;;3.88;;
63943;SDS011;50121;51.218;7.664;2023-12-29T13:37:05;4.32;;;3.90;;
63943;SDS011;50121;51.218;7.664;2023-12-29T13:39:42;4.50;;;4.10;;
63943;SDS011;50121;51.218;7.664;2023-12-29T13:42:11;4.53;;;4.10;;
63943;SDS011;50121;51.218;7.664;2023-12-29T13:44:40;4.40;;;4.10;;
63943;SDS011;50121;51.218;7.664;2023-12-29T13:47:09;4.65;;;4.30;;
63943;SDS011;50121;51.218;7.664;2023-12-29T13:49:37;4.60;;;4.20;;
63943;SDS011;50121;51.218;7.664;2023-12-29T13:52:05;4.57;;;4.20;;
63943;SDS011;50121;51.218;7.664;2023-12-29T13:54:42;4.03;;;3.72;;
63943;SDS011;50121;51.218;7.664;2023-12-29T13:57:10;4.40;;;4.00;;
63943;SDS011;50121;51.218;7.664;2023-12-29T13:59:38;4.65;;;4.25;;
63943;SDS011;50121;51.218;7.664;2023-12-29T14:02:28;4.15;;;3.90;;
63943;SDS011;50121;51.218;7.664;2023-12-29T14:05:10;3.95;;;3.75;;
63943;SDS011;50121;51.218;7.664;2023-12-29T14:07:42;4.10;;;3.70;;
63943;SDS011;50121;51.218;7.664;2023-12-29T14:10:11;4.10;;;3.80;;
63943;SDS011;50121;51.218;7.664;2023-12-29T14:12:40;4.10;;;3.80;;
63943;SDS011;50121;51.218;7.664;2023-12-29T14:15:08;3.97;;;3.70;;
63943;SDS011;50121;51.218;7.664;2023-12-29T14:17:36;4.25;;;3.90;;
63943;SDS011;50121;51.218;7.664;2023-12-29T14:20:06;4.20;;;3.80;;
63943;SDS011;50121;51.218;7.664;2023-12-29T14:22:34;4.30;;;3.92;;
63943;SDS011;50121;51.218;7.664;2023-12-29T14:25:02;4.43;;;3.70;;
63943;SDS011;50121;51.218;7.664;2023-12-29T14:27:30;4.25;;;3.95;;
63943;SDS011;50121;51.218;7.664;2023-12-29T14:29:58;5.25;;;4.70;;
63943;SDS011;50121;51.218;7.664;2023-12-29T14:32:26;5.28;;;4.70;;
63943;SDS011;50121;51.218;7.664;2023-12-29T14:34:55;4.68;;;4.28;;
63943;SDS011;50121;51.218;7.664;2023-12-29T14:37:23;4.60;;;4.20;;
63943;SDS011;50121;51.218;7.664;2023-12-29T14:39:52;4.30;;;4.00;;
63943;SDS011;50121;51.218;7.664;2023-12-29T14:42:20;5.20;;;4.80;;
63943;SDS011;50121;51.218;7.664;2023-12-29T14:44:47;4.93;;;4.57;;
63943;SDS011;50121;51.218;7.664;2023-12-29T14:47:15;4.30;;;4.00;;
63943;SDS011;50121;51.218;7.664;2023-12-29T14:49:44;4.70;;;4.40;;
63943;SDS011;50121;51.218;7.664;2023-12-29T14:52:12;4.45;;;4.15;;
63943;SDS011;50121;51.218;7.664;2023-12-29T14:54:40;4.78;;;4.47;;
63943;SDS011;50121;51.218;7.664;2023-12-29T14:57:07;4.88;;;4.50;;
63943;SDS011;50121;51.218;7.664;2023-12-29T14:59:36;7.05;;;6.35;;
63943;SDS011;50121;51.218;7.664;2023-12-29T15:02:04;7.20;;;6.40;;
63943;SDS011;50121;51.218;7.664;2023-12-29T15:04:34;4.85;;;4.45;;
63943;SDS011;50121;51.218;7.664;2023-12-29T15:07:02;6.28;;;5.65;;